sensor_id;sensor_type;location;lat;lon;timestamp;P1;durP1;ratioP1;P2;durP2;ratioP2
24409;SDS011;12543;53.364;-1.504;2023-02-28T00:01:32;2.35;;;2.15;;
24409;SDS011;12543;53.364;-1.504;2023-02-28T00:03:59;2.30;;;2.10;;
24409;SDS011;12543;53.364;-1.504;2023-02-28T00:06:26;2.17;;;2.00;;
24409;SDS011;12543;53.364;-1.504;2023-02-28T00:08:53;2.53;;;2.03;;
24409;SDS011;12543;53.364;-1.504;2023-02-28T00:11:21;2.00;;;1.90;;
24409;SDS011;12543;53.364;-1.504;2023-02-28T00:13:48;2.00;;;1.90;;
24409;SDS011;12543;53.364;-1.504;2023-02-28T00:16:17;2.05;;;1.83;;
24409;SDS011;12543;53.364;-1.504;2023-02-28T00:18:46;2.00;;;1.80;;
24409;SDS011;12543;53.364;-1.504;2023-02-28T00:21:14;1.90;;;1.65;;
24409;SDS011;12543;53.364;-1.504;2023-02-28T00:23:42;2.40;;;2.05;;
24409;SDS011;12543;53.364;-1.504;2023-02-28T00:26:10;1.85;;;1.63;;
24409;SDS011;12543;53.364;-1.504;2023-02-28T00:28:40;2.83;;;2.30;;
24409;SDS011;12543;53.364;-1.504;2023-02-28T00:31:07;3.97;;;2.50;;
24409;SDS011;12543;53.364;-1.504;2023-02-28T00:33:34;2.70;;;2.50;;
24409;SDS011;12543;53.364;-1.504;2023-02-28T00:36:02;2.85;;;2.65;;
24409;SDS011;12543;53.364;-1.504;2023-02-28T00:38:31;3.20;;;2.90;;
24409;SDS011;12543;53.364;-1.504;2023-02-28T00:40:59;3.72;;;3.17;;
24409;SDS011;12543;53.364;-1.504;2023-02-28T00:43:31;4.20;;;3.80;;
24409;SDS011;12543;53.364;-1.504;2023-02-28T00:46:00;4.65;;;4.32;;
24409;SDS011;12543;53.364;-1.504;2023-02-28T00:48:29;5.82;;;5.32;;
24409;SDS011;12543;53.364;-1.504;2023-02-28T00:50:56;5.40;;;4.90;;
24409;SDS011;12543;53.364;-1.504;2023-02-28T00:53:24;5.70;;;5.18;;
24409;SDS011;12543;53.364;-1.504;2023-02-28T00:55:51;5.55;;;5.00;;
24409;SDS011;12543;53.364;-1.504;2023-02-28T00:58:18;6.45;;;5.78;;
24409;SDS011;12543;53.364;-1.504;2023-02-28T01:00:45;6.72;;;6.13;;
24409;SDS011;12543;53.364;-1.504;2023-02-28T01:03:16;6.75;;;6.07;;
24409;SDS011;12543;53.364;-1.504;2023-02-28T01:08:12;6.13;;;5.43;;
24409;SDS011;12543;53.364;-1.504;2023-02-28T01:10:40;7.38;;;6.53;;
24409;SDS011;12543;53.364;-1.504;2023-02-28T01:13:08;6.35;;;5.75;;
24409;SDS011;12543;53.364;-1.504;2023-02-28T01:15:36;5.43;;;4.93;;
24409;SDS011;12543;53.364;-1.504;2023-02-28T01:18:04;4.28;;;3.78;;
24409;SDS011;12543;53.364;-1.504;2023-02-28T01:20:31;4.38;;;3.97;;
24409;SDS011;12543;53.364;-1.504;2023-02-28T01:22:58;4.15;;;3.22;;
24409;SDS011;12543;53.364;-1.504;2023-02-28T01:25:26;3.75;;;3.45;;
24409;SDS011;12543;53.364;-1.504;2023-02-28T01:27:53;3.33;;;2.67;;
24409;SDS011;12543;53.364;-1.504;2023-02-28T01:30:21;3.10;;;2.90;;
24409;SDS011;12543;53.364;-1.504;2023-02-28T01:32:48;2.65;;;2.45;;
24409;SDS011;12543;53.364;-1.504;2023-02-28T01:35:17;2.42;;;2.20;;
24409;SDS011;12543;53.364;-1.504;2023-02-28T01:37:44;2.53;;;2.33;;
24409;SDS011;12543;53.364;-1.504;2023-02-28T01:40:11;3.17;;;2.58;;
24409;SDS011;12543;53.364;-1.504;2023-02-28T01:42:39;3.30;;;2.40;;
24409;SDS011;12543;53.364;-1.504;2023-02-28T01:48:09;4.18;;;2.25;;
24409;SDS011;12543;53.364;-1.504;2023-02-28T01:50:39;2.47;;;1.95;;
24409;SDS011;12543;53.364;-1.504;2023-02-28T01:53:10;2.33;;;1.90;;
24409;SDS011;12543;53.364;-1.504;2023-02-28T01:55:43;2.08;;;1.75;;
24409;SDS011;12543;53.364;-1.504;2023-02-28T01:58:13;2.42;;;1.52;;
24409;SDS011;12543;53.364;-1.504;2023-02-28T02:00:41;3.05;;;1.60;;
24409;SDS011;12543;53.364;-1.504;2023-02-28T02:03:11;1.52;;;1.30;;
24409;SDS011;12543;53.364;-1.504;2023-02-28T02:05:42;3.17;;;1.60;;
24409;SDS011;12543;53.364;-1.504;2023-02-28T02:08:18;3.45;;;1.77;;
24409;SDS011;12543;53.364;-1.504;2023-02-28T02:10:53;1.80;;;1.40;;
24409;SDS011;12543;53.364;-1.504;2023-02-28T02:13:33;4.10;;;2.60;;
24409;SDS011;12543;53.364;-1.504;2023-02-28T02:16:34;5.78;;;2.42;;
24409;SDS011;12543;53.364;-1.504;2023-02-28T02:30:18;2.97;;;2.05;;
24409;SDS011;12543;53.364;-1.504;2023-02-28T02:33:04;2.35;;;1.60;;
24409;SDS011;12543;53.364;-1.504;2023-02-28T02:35:55;3.17;;;2.25;;
24409;SDS011;12543;53.364;-1.504;2023-02-28T02:41:16;3.38;;;2.50;;
24409;SDS011;12543;53.364;-1.504;2023-02-28T02:46:32;3.55;;;2.38;;
24409;SDS011;12543;53.364;-1.504;2023-02-28T02:49:04;3.53;;;2.83;;
24409;SDS011;12543;53.364;-1.504;2023-02-28T02:51:35;4.32;;;3.25;;
24409;SDS011;12543;53.364;-1.504;2023-02-28T02:54:08;5.50;;;3.58;;
24409;SDS011;12543;53.364;-1.504;2023-02-28T02:56:45;3.78;;;3.40;;
24409;SDS011;12543;53.364;-1.504;2023-02-28T02:59:16;6.13;;;4.28;;
24409;SDS011;12543;53.364;-1.504;2023-02-28T03:01:48;4.90;;;4.45;;
24409;SDS011;12543;53.364;-1.504;2023-02-28T03:04:20;5.50;;;4.32;;
24409;SDS011;12543;53.364;-1.504;2023-02-28T03:06:52;4.63;;;4.22;;
24409;SDS011;12543;53.364;-1.504;2023-02-28T03:09:24;4.50;;;4.10;;
24409;SDS011;12543;53.364;-1.504;2023-02-28T03:11:53;4.00;;;3.60;;
24409;SDS011;12543;53.364;-1.504;2023-02-28T03:33:39;2.25;;;2.15;;
24409;SDS011;12543;53.364;-1.504;2023-02-28T03:36:12;2.60;;;2.40;;
24409;SDS011;12543;53.364;-1.504;2023-02-28T03:41:42;3.58;;;2.10;;
24409;SDS011;12543;53.364;-1.504;2023-02-28T03:49:21;2.08;;;1.60;;
24409;SDS011;12543;53.364;-1.504;2023-02-28T03:52:16;2.05;;;1.85;;
24409;SDS011;12543;53.364;-1.504;2023-02-28T03:54:48;1.77;;;1.67;;
24409;SDS011;12543;53.364;-1.504;2023-02-28T04:00:10;1.63;;;1.50;;
24409;SDS011;12543;53.364;-1.504;2023-02-28T04:02:43;1.60;;;1.50;;
24409;SDS011;12543;53.364;-1.504;2023-02-28T04:05:10;1.77;;;1.60;;
24409;SDS011;12543;53.364;-1.504;2023-02-28T04:07:37;2.30;;;2.10;;
24409;SDS011;12543;53.364;-1.504;2023-02-28T04:10:04;2.40;;;2.20;;
24409;SDS011;12543;53.364;-1.504;2023-02-28T04:12:32;3.00;;;2.80;;
24409;SDS011;12543;53.364;-1.504;2023-02-28T04:14:59;4.35;;;3.95;;
24409;SDS011;12543;53.364;-1.504;2023-02-28T04:17:26;4.40;;;3.83;;
24409;SDS011;12543;53.364;-1.504;2023-02-28T04:19:54;4.85;;;4.45;;
24409;SDS011;12543;53.364;-1.504;2023-02-28T04:22:23;5.82;;;5.32;;
24409;SDS011;12543;53.364;-1.504;2023-02-28T04:24:53;5.95;;;5.45;;
24409;SDS011;12543;53.364;-1.504;2023-02-28T04:27:21;7.03;;;6.35;;
24409;SDS011;12543;53.364;-1.504;2023-02-28T04:29:48;6.85;;;6.03;;
24409;SDS011;12543;53.364;-1.504;2023-02-28T04:32:15;7.30;;;6.60;;
24409;SDS011;12543;53.364;-1.504;2023-02-28T04:34:42;7.95;;;7.15;;
24409;SDS011;12543;53.364;-1.504;2023-02-28T04:37:09;7.18;;;6.57;;
24409;SDS011;12543;53.364;-1.504;2023-02-28T04:39:39;6.85;;;6.22;;
24409;SDS011;12543;53.364;-1.504;2023-02-28T04:42:07;7.22;;;6.53;;
24409;SDS011;12543;53.364;-1.504;2023-02-28T04:44:35;6.57;;;5.90;;
24409;SDS011;12543;53.364;-1.504;2023-02-28T04:47:02;5.38;;;4.97;;
24409;SDS011;12543;53.364;-1.504;2023-02-28T04:49:29;5.80;;;5.30;;
24409;SDS011;12543;53.364;-1.504;2023-02-28T04:51:56;5.20;;;4.70;;
24409;SDS011;12543;53.364;-1.504;2023-02-28T04:54:23;4.95;;;4.45;;
24409;SDS011;12543;53.364;-1.504;2023-02-28T04:56:50;4.75;;;4.35;;
24409;SDS011;12543;53.364;-1.504;2023-02-28T04:59:17;5.35;;;4.85;;
24409;SDS011;12543;53.364;-1.504;2023-02-28T05:01:45;4.55;;;4.15;;
24409;SDS011;12543;53.364;-1.504;2023-02-28T05:04:14;4.20;;;3.90;;
24409;SDS011;12543;53.364;-1.504;2023-02-28T05:06:42;5.03;;;4.53;;
24409;SDS011;12543;53.364;-1.504;2023-02-28T05:09:09;5.38;;;4.88;;
24409;SDS011;12543;53.364;-1.504;2023-02-28T05:11:39;5.80;;;5.20;;
24409;SDS011;12543;53.364;-1.504;2023-02-28T05:14:11;5.82;;;5.22;;
24409;SDS011;12543;53.364;-1.504;2023-02-28T05:16:40;6.03;;;5.43;;
24409;SDS011;12543;53.364;-1.504;2023-02-28T05:19:07;5.70;;;5.20;;
24409;SDS011;12543;53.364;-1.504;2023-02-28T05:21:35;6.10;;;5.50;;
24409;SDS011;12543;53.364;-1.504;2023-02-28T05:24:08;6.30;;;5.25;;
24409;SDS011;12543;53.364;-1.504;2023-02-28T05:26:37;5.80;;;5.30;;
24409;SDS011;12543;53.364;-1.504;2023-02-28T05:29:07;5.28;;;4.82;;
24409;SDS011;12543;53.364;-1.504;2023-02-28T05:31:34;5.10;;;4.60;;
24409;SDS011;12543;53.364;-1.504;2023-02-28T05:34:01;4.32;;;4.00;;
24409;SDS011;12543;53.364;-1.504;2023-02-28T05:36:31;4.65;;;4.25;;
24409;SDS011;12543;53.364;-1.504;2023-02-28T05:38:58;4.65;;;4.25;;
24409;SDS011;12543;53.364;-1.504;2023-02-28T05:41:25;5.63;;;4.22;;
24409;SDS011;12543;53.364;-1.504;2023-02-28T05:43:53;4.57;;;4.17;;
24409;SDS011;12543;53.364;-1.504;2023-02-28T05:46:20;4.30;;;3.90;;
24409;SDS011;12543;53.364;-1.504;2023-02-28T05:48:47;4.38;;;4.00;;
24409;SDS011;12543;53.364;-1.504;2023-02-28T05:51:15;4.37;;;3.97;;
24409;SDS011;12543;53.364;-1.504;2023-02-28T05:53:43;3.70;;;3.40;;
24409;SDS011;12543;53.364;-1.504;2023-02-28T05:56:10;4.70;;;4.25;;
24409;SDS011;12543;53.364;-1.504;2023-02-28T05:58:37;4.28;;;3.88;;
24409;SDS011;12543;53.364;-1.504;2023-02-28T06:04:02;4.55;;;4.15;;
24409;SDS011;12543;53.364;-1.504;2023-02-28T06:06:31;4.63;;;4.18;;
24409;SDS011;12543;53.364;-1.504;2023-02-28T06:09:03;4.45;;;4.05;;
24409;SDS011;12543;53.364;-1.504;2023-02-28T06:11:31;4.20;;;3.80;;
24409;SDS011;12543;53.364;-1.504;2023-02-28T06:13:59;3.83;;;3.42;;
24409;SDS011;12543;53.364;-1.504;2023-02-28T06:16:27;4.50;;;4.10;;
24409;SDS011;12543;53.364;-1.504;2023-02-28T06:19:00;4.80;;;4.38;;
24409;SDS011;12543;53.364;-1.504;2023-02-28T06:21:29;5.00;;;4.47;;
24409;SDS011;12543;53.364;-1.504;2023-02-28T06:23:57;4.85;;;4.25;;
24409;SDS011;12543;53.364;-1.504;2023-02-28T06:26:25;4.97;;;4.47;;
24409;SDS011;12543;53.364;-1.504;2023-02-28T06:28:52;4.47;;;4.03;;
24409;SDS011;12543;53.364;-1.504;2023-02-28T06:31:21;5.28;;;4.78;;
24409;SDS011;12543;53.364;-1.504;2023-02-28T06:33:48;5.75;;;4.68;;
24409;SDS011;12543;53.364;-1.504;2023-02-28T06:36:16;5.05;;;4.55;;
24409;SDS011;12543;53.364;-1.504;2023-02-28T06:38:44;4.63;;;4.22;;
24409;SDS011;12543;53.364;-1.504;2023-02-28T06:41:13;5.22;;;4.65;;
24409;SDS011;12543;53.364;-1.504;2023-02-28T06:43:41;4.55;;;4.15;;
24409;SDS011;12543;53.364;-1.504;2023-02-28T06:46:10;5.07;;;3.95;;
24409;SDS011;12543;53.364;-1.504;2023-02-28T06:48:40;5.22;;;4.70;;
24409;SDS011;12543;53.364;-1.504;2023-02-28T06:51:10;5.45;;;4.90;;
24409;SDS011;12543;53.364;-1.504;2023-02-28T06:53:40;5.90;;;4.85;;
24409;SDS011;12543;53.364;-1.504;2023-02-28T06:56:08;6.05;;;4.55;;
24409;SDS011;12543;53.364;-1.504;2023-02-28T06:58:37;5.07;;;4.57;;
24409;SDS011;12543;53.364;-1.504;2023-02-28T07:01:05;4.43;;;4.00;;
24409;SDS011;12543;53.364;-1.504;2023-02-28T07:03:34;5.10;;;4.03;;
24409;SDS011;12543;53.364;-1.504;2023-02-28T07:06:04;4.47;;;4.07;;
24409;SDS011;12543;53.364;-1.504;2023-02-28T07:08:32;5.30;;;4.30;;
24409;SDS011;12543;53.364;-1.504;2023-02-28T07:11:00;4.35;;;3.97;;
24409;SDS011;12543;53.364;-1.504;2023-02-28T07:13:27;4.60;;;3.53;;
24409;SDS011;12543;53.364;-1.504;2023-02-28T07:16:04;5.05;;;3.40;;
24409;SDS011;12543;53.364;-1.504;2023-02-28T07:18:33;3.22;;;2.92;;
24409;SDS011;12543;53.364;-1.504;2023-02-28T07:21:03;3.40;;;3.10;;
24409;SDS011;12543;53.364;-1.504;2023-02-28T07:23:32;4.35;;;3.10;;
24409;SDS011;12543;53.364;-1.504;2023-02-28T07:25:59;2.67;;;2.47;;
24409;SDS011;12543;53.364;-1.504;2023-02-28T07:28:27;3.20;;;2.80;;
24409;SDS011;12543;53.364;-1.504;2023-02-28T07:30:54;2.83;;;2.50;;
24409;SDS011;12543;53.364;-1.504;2023-02-28T07:33:21;2.50;;;2.20;;
24409;SDS011;12543;53.364;-1.504;2023-02-28T07:35:48;2.80;;;2.42;;
24409;SDS011;12543;53.364;-1.504;2023-02-28T07:38:15;4.15;;;2.75;;
24409;SDS011;12543;53.364;-1.504;2023-02-28T07:40:43;2.55;;;2.22;;
24409;SDS011;12543;53.364;-1.504;2023-02-28T07:43:10;2.40;;;2.17;;
24409;SDS011;12543;53.364;-1.504;2023-02-28T07:45:37;3.22;;;1.83;;
24409;SDS011;12543;53.364;-1.504;2023-02-28T07:48:04;3.20;;;1.92;;
24409;SDS011;12543;53.364;-1.504;2023-02-28T07:50:31;2.13;;;1.77;;
24409;SDS011;12543;53.364;-1.504;2023-02-28T07:52:58;2.72;;;1.73;;
24409;SDS011;12543;53.364;-1.504;2023-02-28T07:55:25;3.38;;;1.80;;
24409;SDS011;12543;53.364;-1.504;2023-02-28T07:57:53;2.22;;;1.98;;
24409;SDS011;12543;53.364;-1.504;2023-02-28T08:00:20;2.10;;;1.88;;
24409;SDS011;12543;53.364;-1.504;2023-02-28T08:02:48;2.55;;;1.98;;
24409;SDS011;12543;53.364;-1.504;2023-02-28T08:05:15;3.38;;;2.10;;
24409;SDS011;12543;53.364;-1.504;2023-02-28T08:07:48;3.97;;;1.80;;
24409;SDS011;12543;53.364;-1.504;2023-02-28T08:12:43;2.40;;;1.60;;
24409;SDS011;12543;53.364;-1.504;2023-02-28T08:15:10;2.85;;;1.98;;
24409;SDS011;12543;53.364;-1.504;2023-02-28T08:17:37;1.77;;;1.58;;
24409;SDS011;12543;53.364;-1.504;2023-02-28T08:20:04;3.13;;;2.00;;
24409;SDS011;12543;53.364;-1.504;2023-02-28T08:22:32;3.53;;;1.88;;
24409;SDS011;12543;53.364;-1.504;2023-02-28T08:24:59;3.00;;;2.40;;
24409;SDS011;12543;53.364;-1.504;2023-02-28T08:27:27;2.17;;;1.50;;
24409;SDS011;12543;53.364;-1.504;2023-02-28T08:29:53;1.90;;;1.48;;
24409;SDS011;12543;53.364;-1.504;2023-02-28T08:32:20;4.15;;;2.10;;
24409;SDS011;12543;53.364;-1.504;2023-02-28T08:34:55;3.00;;;2.25;;
24409;SDS011;12543;53.364;-1.504;2023-02-28T08:37:22;3.38;;;2.15;;
24409;SDS011;12543;53.364;-1.504;2023-02-28T08:39:50;4.20;;;2.45;;
24409;SDS011;12543;53.364;-1.504;2023-02-28T08:42:22;3.78;;;2.58;;
24409;SDS011;12543;53.364;-1.504;2023-02-28T08:44:50;2.88;;;2.10;;
24409;SDS011;12543;53.364;-1.504;2023-02-28T08:47:17;4.15;;;2.83;;
24409;SDS011;12543;53.364;-1.504;2023-02-28T08:49:44;2.63;;;2.20;;
24409;SDS011;12543;53.364;-1.504;2023-02-28T08:52:12;3.28;;;2.40;;
24409;SDS011;12543;53.364;-1.504;2023-02-28T08:54:39;2.77;;;2.07;;
24409;SDS011;12543;53.364;-1.504;2023-02-28T08:57:06;2.78;;;2.22;;
24409;SDS011;12543;53.364;-1.504;2023-02-28T08:59:33;3.85;;;2.40;;
24409;SDS011;12543;53.364;-1.504;2023-02-28T09:02:00;2.53;;;1.80;;
24409;SDS011;12543;53.364;-1.504;2023-02-28T09:04:27;2.78;;;1.65;;
24409;SDS011;12543;53.364;-1.504;2023-02-28T09:06:57;3.20;;;1.80;;
24409;SDS011;12543;53.364;-1.504;2023-02-28T09:09:24;3.17;;;1.60;;
24409;SDS011;12543;53.364;-1.504;2023-02-28T09:11:51;3.83;;;1.35;;
24409;SDS011;12543;53.364;-1.504;2023-02-28T09:14:18;2.05;;;1.30;;
24409;SDS011;12543;53.364;-1.504;2023-02-28T09:16:46;1.73;;;1.60;;
24409;SDS011;12543;53.364;-1.504;2023-02-28T09:19:13;2.80;;;1.48;;
24409;SDS011;12543;53.364;-1.504;2023-02-28T09:21:40;1.70;;;1.33;;
24409;SDS011;12543;53.364;-1.504;2023-02-28T09:24:07;1.10;;;1.00;;
24409;SDS011;12543;53.364;-1.504;2023-02-28T09:26:34;1.60;;;1.50;;
24409;SDS011;12543;53.364;-1.504;2023-02-28T09:29:12;2.30;;;1.27;;
24409;SDS011;12543;53.364;-1.504;2023-02-28T09:31:40;1.65;;;1.50;;
24409;SDS011;12543;53.364;-1.504;2023-02-28T09:34:10;1.67;;;1.35;;
24409;SDS011;12543;53.364;-1.504;2023-02-28T09:36:37;2.58;;;1.40;;
24409;SDS011;12543;53.364;-1.504;2023-02-28T09:39:11;1.48;;;1.20;;
24409;SDS011;12543;53.364;-1.504;2023-02-28T09:41:42;1.95;;;1.20;;
24409;SDS011;12543;53.364;-1.504;2023-02-28T09:47:25;1.30;;;1.20;;
24409;SDS011;12543;53.364;-1.504;2023-02-28T09:49:57;1.30;;;1.20;;
24409;SDS011;12543;53.364;-1.504;2023-02-28T09:52:30;1.38;;;1.17;;
24409;SDS011;12543;53.364;-1.504;2023-02-28T09:58:11;2.50;;;1.40;;
24409;SDS011;12543;53.364;-1.504;2023-02-28T10:01:25;2.03;;;1.25;;
24409;SDS011;12543;53.364;-1.504;2023-02-28T10:04:30;1.85;;;1.33;;
24409;SDS011;12543;53.364;-1.504;2023-02-28T10:07:02;1.63;;;1.50;;
24409;SDS011;12543;53.364;-1.504;2023-02-28T10:09:44;0.95;;;0.95;;
24409;SDS011;12543;53.364;-1.504;2023-02-28T10:12:15;2.45;;;1.60;;
24409;SDS011;12543;53.364;-1.504;2023-02-28T10:14:44;1.33;;;1.20;;
24409;SDS011;12543;53.364;-1.504;2023-02-28T10:17:14;1.55;;;1.30;;
24409;SDS011;12543;53.364;-1.504;2023-02-28T10:22:36;3.00;;;1.60;;
24409;SDS011;12543;53.364;-1.504;2023-02-28T10:25:25;3.13;;;1.20;;
24409;SDS011;12543;53.364;-1.504;2023-02-28T10:27:57;1.60;;;1.50;;
24409;SDS011;12543;53.364;-1.504;2023-02-28T10:30:32;3.70;;;1.23;;
24409;SDS011;12543;53.364;-1.504;2023-02-28T10:32:59;1.67;;;1.58;;
24409;SDS011;12543;53.364;-1.504;2023-02-28T10:35:26;1.60;;;1.20;;
24409;SDS011;12543;53.364;-1.504;2023-02-28T10:37:55;1.58;;;1.30;;
24409;SDS011;12543;53.364;-1.504;2023-02-28T10:42:55;1.40;;;1.30;;
24409;SDS011;12543;53.364;-1.504;2023-02-28T10:45:24;1.60;;;1.00;;
24409;SDS011;12543;53.364;-1.504;2023-02-28T10:47:53;1.98;;;1.20;;
24409;SDS011;12543;53.364;-1.504;2023-02-28T10:50:27;3.38;;;1.05;;
24409;SDS011;12543;53.364;-1.504;2023-02-28T10:55:36;1.98;;;1.00;;
24409;SDS011;12543;53.364;-1.504;2023-02-28T10:58:07;1.20;;;1.10;;
24409;SDS011;12543;53.364;-1.504;2023-02-28T11:00:52;1.50;;;1.38;;
24409;SDS011;12543;53.364;-1.504;2023-02-28T11:03:33;1.90;;;1.60;;
24409;SDS011;12543;53.364;-1.504;2023-02-28T11:06:05;1.88;;;1.58;;
24409;SDS011;12543;53.364;-1.504;2023-02-28T11:08:35;2.35;;;1.50;;
24409;SDS011;12543;53.364;-1.504;2023-02-28T11:11:12;2.83;;;1.63;;
24409;SDS011;12543;53.364;-1.504;2023-02-28T11:13:39;2.80;;;1.63;;
24409;SDS011;12543;53.364;-1.504;2023-02-28T11:16:09;2.25;;;1.25;;
24409;SDS011;12543;53.364;-1.504;2023-02-28T11:18:41;2.90;;;1.45;;
24409;SDS011;12543;53.364;-1.504;2023-02-28T11:24:12;1.40;;;1.00;;
24409;SDS011;12543;53.364;-1.504;2023-02-28T11:27:01;1.67;;;0.90;;
24409;SDS011;12543;53.364;-1.504;2023-02-28T11:29:30;1.25;;;0.93;;
24409;SDS011;12543;53.364;-1.504;2023-02-28T11:34:28;2.38;;;1.35;;
24409;SDS011;12543;53.364;-1.504;2023-02-28T11:36:57;1.20;;;1.10;;
24409;SDS011;12543;53.364;-1.504;2023-02-28T11:39:26;1.35;;;1.15;;
24409;SDS011;12543;53.364;-1.504;2023-02-28T11:44:55;1.58;;;1.13;;
24409;SDS011;12543;53.364;-1.504;2023-02-28T12:04:07;3.60;;;2.30;;
24409;SDS011;12543;53.364;-1.504;2023-02-28T12:28:39;1.77;;;1.20;;
24409;SDS011;12543;53.364;-1.504;2023-02-28T12:31:18;3.22;;;1.23;;
24409;SDS011;12543;53.364;-1.504;2023-02-28T12:33:52;1.88;;;1.00;;
24409;SDS011;12543;53.364;-1.504;2023-02-28T12:36:21;1.92;;;1.05;;
24409;SDS011;12543;53.364;-1.504;2023-02-28T12:41:41;0.63;;;0.63;;
24409;SDS011;12543;53.364;-1.504;2023-02-28T12:44:15;1.42;;;0.70;;
24409;SDS011;12543;53.364;-1.504;2023-02-28T12:47:09;1.33;;;0.80;;
24409;SDS011;12543;53.364;-1.504;2023-02-28T12:49:46;1.38;;;0.80;;
24409;SDS011;12543;53.364;-1.504;2023-02-28T12:52:17;1.00;;;0.90;;
24409;SDS011;12543;53.364;-1.504;2023-02-28T12:54:51;1.33;;;0.77;;
24409;SDS011;12543;53.364;-1.504;2023-02-28T13:00:35;0.73;;;0.73;;
24409;SDS011;12543;53.364;-1.504;2023-02-28T13:05:46;0.60;;;0.60;;
24409;SDS011;12543;53.364;-1.504;2023-02-28T13:11:00;0.90;;;0.80;;
24409;SDS011;12543;53.364;-1.504;2023-02-28T13:13:32;0.70;;;0.70;;
24409;SDS011;12543;53.364;-1.504;2023-02-28T13:18:30;1.15;;;1.00;;
24409;SDS011;12543;53.364;-1.504;2023-02-28T13:21:21;0.80;;;0.68;;
24409;SDS011;12543;53.364;-1.504;2023-02-28T13:28:59;0.90;;;0.70;;
24409;SDS011;12543;53.364;-1.504;2023-02-28T13:31:27;0.70;;;0.70;;
24409;SDS011;12543;53.364;-1.504;2023-02-28T13:36:29;1.00;;;0.70;;
24409;SDS011;12543;53.364;-1.504;2023-02-28T13:38:58;1.42;;;0.77;;
24409;SDS011;12543;53.364;-1.504;2023-02-28T13:43:59;0.85;;;0.80;;
24409;SDS011;12543;53.364;-1.504;2023-02-28T14:05:37;0.82;;;0.45;;
24409;SDS011;12543;53.364;-1.504;2023-02-28T14:08:10;0.80;;;0.60;;
24409;SDS011;12543;53.364;-1.504;2023-02-28T14:10:47;0.70;;;0.60;;
24409;SDS011;12543;53.364;-1.504;2023-02-28T14:16:14;0.80;;;0.68;;
24409;SDS011;12543;53.364;-1.504;2023-02-28T14:19:00;0.60;;;0.60;;
24409;SDS011;12543;53.364;-1.504;2023-02-28T14:21:35;1.35;;;0.70;;
24409;SDS011;12543;53.364;-1.504;2023-02-28T14:32:49;1.88;;;0.80;;
24409;SDS011;12543;53.364;-1.504;2023-02-28T14:37:53;0.85;;;0.77;;
24409;SDS011;12543;53.364;-1.504;2023-02-28T14:40:29;1.10;;;1.08;;
24409;SDS011;12543;53.364;-1.504;2023-02-28T14:42:59;1.10;;;1.00;;
24409;SDS011;12543;53.364;-1.504;2023-02-28T14:45:31;1.58;;;1.20;;
24409;SDS011;12543;53.364;-1.504;2023-02-28T14:48:01;1.88;;;1.08;;
24409;SDS011;12543;53.364;-1.504;2023-02-28T14:50:31;1.17;;;1.00;;
24409;SDS011;12543;53.364;-1.504;2023-02-28T14:53:03;1.20;;;1.10;;
24409;SDS011;12543;53.364;-1.504;2023-02-28T14:55:34;1.33;;;1.23;;
24409;SDS011;12543;53.364;-1.504;2023-02-28T14:58:03;1.27;;;1.00;;
24409;SDS011;12543;53.364;-1.504;2023-02-28T15:00:33;1.70;;;0.90;;
24409;SDS011;12543;53.364;-1.504;2023-02-28T15:03:20;1.50;;;1.10;;
24409;SDS011;12543;53.364;-1.504;2023-02-28T15:05:57;1.73;;;0.75;;
24409;SDS011;12543;53.364;-1.504;2023-02-28T15:10:56;1.00;;;0.90;;
24409;SDS011;12543;53.364;-1.504;2023-02-28T15:13:28;2.53;;;0.80;;
24409;SDS011;12543;53.364;-1.504;2023-02-28T15:16:12;4.00;;;0.93;;
24409;SDS011;12543;53.364;-1.504;2023-02-28T15:18:48;0.90;;;0.60;;
24409;SDS011;12543;53.364;-1.504;2023-02-28T15:21:25;1.35;;;0.80;;
24409;SDS011;12543;53.364;-1.504;2023-02-28T15:23:56;0.73;;;0.60;;
24409;SDS011;12543;53.364;-1.504;2023-02-28T15:26:55;1.55;;;1.08;;
24409;SDS011;12543;53.364;-1.504;2023-02-28T15:29:25;1.15;;;0.80;;
24409;SDS011;12543;53.364;-1.504;2023-02-28T15:32:05;2.40;;;0.70;;
24409;SDS011;12543;53.364;-1.504;2023-02-28T15:34:35;2.08;;;0.75;;
24409;SDS011;12543;53.364;-1.504;2023-02-28T15:40:11;2.20;;;0.80;;
24409;SDS011;12543;53.364;-1.504;2023-02-28T15:42:38;0.82;;;0.70;;
24409;SDS011;12543;53.364;-1.504;2023-02-28T15:45:06;1.45;;;0.80;;
24409;SDS011;12543;53.364;-1.504;2023-02-28T15:48:15;1.10;;;1.00;;
24409;SDS011;12543;53.364;-1.504;2023-02-28T15:50:54;2.25;;;0.98;;
24409;SDS011;12543;53.364;-1.504;2023-02-28T15:53:25;2.20;;;1.10;;
24409;SDS011;12543;53.364;-1.504;2023-02-28T15:56:01;2.60;;;1.08;;
24409;SDS011;12543;53.364;-1.504;2023-02-28T15:58:31;1.02;;;0.70;;
24409;SDS011;12543;53.364;-1.504;2023-02-28T16:01:00;1.75;;;0.60;;
24409;SDS011;12543;53.364;-1.504;2023-02-28T16:03:54;0.95;;;0.80;;
24409;SDS011;12543;53.364;-1.504;2023-02-28T16:06:39;1.08;;;0.70;;
24409;SDS011;12543;53.364;-1.504;2023-02-28T16:11:45;3.58;;;1.35;;
24409;SDS011;12543;53.364;-1.504;2023-02-28T16:14:17;1.30;;;1.10;;
24409;SDS011;12543;53.364;-1.504;2023-02-28T16:16:57;1.40;;;1.30;;
24409;SDS011;12543;53.364;-1.504;2023-02-28T16:19:31;2.03;;;1.38;;
24409;SDS011;12543;53.364;-1.504;2023-02-28T16:22:00;1.17;;;1.08;;
24409;SDS011;12543;53.364;-1.504;2023-02-28T16:24:27;2.72;;;1.13;;
24409;SDS011;12543;53.364;-1.504;2023-02-28T16:26:54;1.33;;;1.00;;
24409;SDS011;12543;53.364;-1.504;2023-02-28T16:29:27;1.33;;;1.05;;
24409;SDS011;12543;53.364;-1.504;2023-02-28T16:31:58;1.42;;;0.90;;
24409;SDS011;12543;53.364;-1.504;2023-02-28T16:34:26;1.80;;;0.82;;
24409;SDS011;12543;53.364;-1.504;2023-02-28T16:36:54;2.05;;;1.13;;
24409;SDS011;12543;53.364;-1.504;2023-02-28T16:39:21;1.85;;;1.17;;
24409;SDS011;12543;53.364;-1.504;2023-02-28T16:41:49;1.88;;;1.10;;
24409;SDS011;12543;53.364;-1.504;2023-02-28T16:44:31;2.13;;;0.90;;
24409;SDS011;12543;53.364;-1.504;2023-02-28T16:47:01;3.42;;;0.88;;
24409;SDS011;12543;53.364;-1.504;2023-02-28T16:49:29;0.75;;;0.60;;
24409;SDS011;12543;53.364;-1.504;2023-02-28T16:51:56;1.10;;;0.77;;
24409;SDS011;12543;53.364;-1.504;2023-02-28T16:54:24;0.60;;;0.60;;
24409;SDS011;12543;53.364;-1.504;2023-02-28T16:56:51;1.17;;;0.82;;
24409;SDS011;12543;53.364;-1.504;2023-02-28T16:59:19;1.27;;;0.80;;
24409;SDS011;12543;53.364;-1.504;2023-02-28T17:01:50;0.82;;;0.70;;
24409;SDS011;12543;53.364;-1.504;2023-02-28T17:04:18;2.58;;;1.13;;
24409;SDS011;12543;53.364;-1.504;2023-02-28T17:06:45;0.93;;;0.77;;
24409;SDS011;12543;53.364;-1.504;2023-02-28T17:09:19;0.90;;;0.90;;
24409;SDS011;12543;53.364;-1.504;2023-02-28T17:11:56;2.13;;;0.90;;
24409;SDS011;12543;53.364;-1.504;2023-02-28T17:14:23;1.77;;;0.98;;
24409;SDS011;12543;53.364;-1.504;2023-02-28T17:16:50;1.85;;;0.98;;
24409;SDS011;12543;53.364;-1.504;2023-02-28T17:19:17;1.20;;;0.90;;
24409;SDS011;12543;53.364;-1.504;2023-02-28T17:21:44;1.13;;;1.00;;
24409;SDS011;12543;53.364;-1.504;2023-02-28T17:24:12;2.08;;;1.10;;
24409;SDS011;12543;53.364;-1.504;2023-02-28T17:26:44;1.55;;;1.10;;
24409;SDS011;12543;53.364;-1.504;2023-02-28T17:29:13;1.90;;;1.00;;
24409;SDS011;12543;53.364;-1.504;2023-02-28T17:31:47;1.50;;;1.20;;
24409;SDS011;12543;53.364;-1.504;2023-02-28T17:34:15;1.98;;;1.42;;
24409;SDS011;12543;53.364;-1.504;2023-02-28T17:36:45;1.17;;;1.08;;
24409;SDS011;12543;53.364;-1.504;2023-02-28T17:39:15;1.63;;;1.20;;
24409;SDS011;12543;53.364;-1.504;2023-02-28T17:41:54;1.58;;;1.35;;
24409;SDS011;12543;53.364;-1.504;2023-02-28T17:44:21;1.90;;;1.00;;
24409;SDS011;12543;53.364;-1.504;2023-02-28T17:46:53;1.65;;;1.27;;
24409;SDS011;12543;53.364;-1.504;2023-02-28T17:49:21;2.47;;;1.20;;
24409;SDS011;12543;53.364;-1.504;2023-02-28T17:51:48;2.35;;;1.40;;
24409;SDS011;12543;53.364;-1.504;2023-02-28T17:54:16;1.83;;;1.25;;
24409;SDS011;12543;53.364;-1.504;2023-02-28T17:56:44;2.17;;;1.38;;
24409;SDS011;12543;53.364;-1.504;2023-02-28T17:59:11;2.08;;;1.33;;